Time;durP1;ratioP1;P1;durP2;ratioP2;P2;SDS_P1;SDS_P2;PMS_P1;PMS_P2;Temp;Humidity;BMP_temperature;BMP_pressure;BME280_temperature;BME280_humidity;BME280_pressure;Samples;Min_cycle;Max_cycle;Signal;HPM_P1;HPM_P2
2022/10/18 00:02:29;;;;;;;1.95;1.60;;;18.90;59.50;;;;;;5946579;24;20222;-84
2022/10/18 00:05:26;;;;;;;2.00;1.80;;;18.90;59.60;;;;;;5925012;24;20168;-83
2022/10/18 00:07:55;;;;;;;2.00;1.80;;;18.90;59.60;;;;;;5945501;24;20153;-83
2022/10/18 00:10:40;;;;;;;1.60;1.50;;;18.90;59.60;;;;;;5922426;24;20250;-83
2022/10/18 00:13:30;;;;;;;3.08;1.60;;;18.90;59.60;;;;;;5946657;24;20225;-83
2022/10/18 00:16:06;;;;;;;1.88;1.75;;;18.90;59.60;;;;;;5940910;24;20165;-83
2022/10/18 00:18:52;;;;;;;1.80;1.70;;;18.90;59.60;;;;;;5896743;24;20217;-83
2022/10/18 00:21:39;;;;;;;1.88;1.70;;;18.90;59.70;;;;;;5913398;24;20288;-84
2022/10/18 00:24:35;;;;;;;2.17;1.63;;;18.90;59.60;;;;;;5924550;23;20156;-83
2022/10/18 00:27:10;;;;;;;1.85;1.55;;;18.90;59.60;;;;;;5982965;23;20158;-83
2022/10/18 00:29:43;;;;;;;1.70;1.60;;;18.90;59.70;;;;;;6011940;23;20158;-83
2022/10/18 00:32:36;;;;;;;1.70;1.60;;;18.90;59.70;;;;;;6011781;23;20154;-83
2022/10/18 00:35:10;;;;;;;2.00;1.80;;;18.90;59.70;;;;;;6082753;23;20180;-83
2022/10/18 00:37:51;;;;;;;2.13;1.80;;;18.90;59.80;;;;;;6011494;23;20161;-83
2022/10/18 00:40:34;;;;;;;2.22;1.90;;;18.90;59.80;;;;;;6012557;23;20199;-83
2022/10/18 00:43:19;;;;;;;1.80;1.70;;;18.90;59.70;;;;;;5984208;23;20186;-83
2022/10/18 00:46:09;;;;;;;2.15;1.90;;;18.90;60.60;;;;;;5985252;23;20154;-83
2022/10/18 00:48:50;;;;;;;1.92;1.75;;;18.90;59.80;;;;;;6000617;23;20159;-83
2022/10/18 00:51:43;;;;;;;1.92;1.77;;;18.90;59.80;;;;;;5981607;23;20174;-83
2022/10/18 00:54:36;;;;;;;1.85;1.75;;;18.90;59.80;;;;;;5953823;24;20189;-83
2022/10/18 00:57:11;;;;;;;2.35;1.75;;;18.90;59.90;;;;;;5975696;24;20198;-83
2022/10/18 00:59:50;;;;;;;2.50;2.00;;;18.80;59.80;;;;;;5975648;24;20167;-83
2022/10/18 01:02:22;;;;;;;1.77;1.67;;;18.80;59.80;;;;;;5952372;24;20191;-83
2022/10/18 01:05:02;;;;;;;4.28;1.80;;;18.80;59.80;;;;;;5951811;24;20156;-83
2022/10/18 01:08:21;;;;;;;2.22;1.70;;;18.80;59.80;;;;;;5978955;23;20159;-83
2022/10/18 01:11:21;;;;;;;2.10;1.63;;;18.80;59.90;;;;;;6003506;24;20222;-83
2022/10/18 01:14:05;;;;;;;2.47;1.90;;;18.80;59.90;;;;;;6014685;23;20178;-83
2022/10/18 01:16:51;;;;;;;2.22;1.80;;;18.80;59.80;;;;;;6003383;24;20167;-83
2022/10/18 01:20:04;;;;;;;1.95;1.48;;;18.80;59.90;;;;;;6019198;23;20161;-83
2022/10/18 01:23:00;;;;;;;1.88;1.75;;;18.80;60.00;;;;;;6025760;23;20214;-83
2022/10/18 01:26:04;;;;;;;1.95;1.75;;;18.80;60.00;;;;;;6060932;23;20150;-84
2022/10/18 01:29:14;;;;;;;1.60;1.50;;;18.80;60.00;;;;;;6036951;23;20218;-84
2022/10/18 01:31:59;;;;;;;2.40;1.65;;;18.80;60.00;;;;;;6102178;23;20210;-83
2022/10/18 01:34:38;;;;;;;2.67;1.95;;;18.80;59.90;;;;;;6099460;23;20169;-83
2022/10/18 01:37:11;;;;;;;2.03;1.77;;;18.80;60.00;;;;;;6104888;23;20196;-83
2022/10/18 01:39:55;;;;;;;1.85;1.65;;;18.80;59.90;;;;;;6035544;23;20220;-83
2022/10/18 01:42:23;;;;;;;1.83;1.50;;;18.80;59.90;;;;;;6058116;23;20189;-83
2022/10/18 01:44:55;;;;;;;2.00;1.80;;;18.80;59.90;;;;;;6035931;23;20161;-83
2022/10/18 01:47:28;;;;;;;1.75;1.60;;;18.80;60.00;;;;;;6041134;23;20156;-83
2022/10/18 01:49:59;;;;;;;1.95;1.70;;;18.80;60.10;;;;;;6122239;23;20152;-83
2022/10/18 01:52:32;;;;;;;1.70;1.60;;;18.80;60.10;;;;;;6116245;23;20204;-83
2022/10/18 01:55:01;;;;;;;1.80;1.70;;;18.80;60.10;;;;;;6112197;23;20164;-83
2022/10/18 01:57:58;;;;;;;1.77;1.50;;;18.80;60.10;;;;;;6112999;23;20159;-83
2022/10/18 02:00:43;;;;;;;1.90;1.50;;;18.80;60.10;;;;;;6087597;23;20188;-83
2022/10/18 02:03:33;;;;;;;1.70;1.60;;;18.80;60.10;;;;;;6111275;23;20188;-83
2022/10/18 02:06:24;;;;;;;1.65;1.50;;;18.80;60.20;;;;;;6110314;23;20137;-83
2022/10/18 02:09:20;;;;;;;2.05;1.67;;;18.80;60.00;;;;;;6080655;23;20164;-83
2022/10/18 02:11:50;;;;;;;1.85;1.63;;;18.80;60.00;;;;;;6001913;23;20151;-83
2022/10/18 02:14:33;;;;;;;1.95;1.70;;;18.80;60.00;;;;;;6027689;23;20165;-83
2022/10/18 02:17:10;;;;;;;1.73;1.63;;;18.80;60.00;;;;;;6006263;23;20181;-83
2022/10/18 02:19:43;;;;;;;2.05;1.60;;;18.80;60.00;;;;;;6006087;23;20154;-84
2022/10/18 02:22:27;;;;;;;2.15;1.92;;;18.80;60.10;;;;;;6029991;23;20190;-83
2022/10/18 02:25:09;;;;;;;1.85;1.60;;;18.80;60.20;;;;;;6007724;23;20155;-83
2022/10/18 02:27:47;;;;;;;1.83;1.65;;;18.80;60.10;;;;;;6018062;23;20215;-83
2022/10/18 02:30:28;;;;;;;2.00;1.80;;;18.80;60.20;;;;;;6064500;23;20157;-83
2022/10/18 02:33:10;;;;;;;2.05;1.80;;;18.80;60.30;;;;;;5983634;23;20162;-82
2022/10/18 02:35:54;;;;;;;1.55;1.45;;;18.70;60.30;;;;;;6051516;23;20286;-83
2022/10/18 02:38:30;;;;;;;1.88;1.67;;;18.70;60.30;;;;;;6081869;23;20154;-83
2022/10/18 02:41:05;;;;;;;2.55;1.60;;;18.70;60.30;;;;;;6015889;23;20593;-84
2022/10/18 02:43:59;;;;;;;2.13;1.70;;;18.70;60.30;;;;;;6045834;23;20236;-83
2022/10/18 02:46:35;;;;;;;2.42;1.75;;;18.70;60.30;;;;;;6093986;23;20137;-83
2022/10/18 02:49:25;;;;;;;1.70;1.60;;;18.80;60.40;;;;;;6110338;23;20185;-83
2022/10/18 02:51:56;;;;;;;1.88;1.70;;;18.70;60.40;;;;;;5986302;23;20158;-84
2022/10/18 02:54:23;;;;;;;2.28;1.67;;;18.70;60.40;;;;;;6006518;23;20165;-83
2022/10/18 02:56:54;;;;;;;2.00;1.80;;;18.70;60.40;;;;;;6058037;23;20154;-83
2022/10/18 02:59:40;;;;;;;1.92;1.60;;;18.70;60.50;;;;;;6059173;23;20158;-84
2022/10/18 03:02:12;;;;;;;1.50;1.40;;;18.80;60.40;;;;;;6034417;23;20185;-83
2022/10/18 03:04:41;;;;;;;1.83;1.65;;;18.70;60.30;;;;;;6034795;23;20182;-84
2022/10/18 03:07:15;;;;;;;2.20;1.60;;;18.80;60.30;;;;;;6041691;23;20150;-84
2022/10/18 03:09:57;;;;;;;1.60;1.50;;;18.80;60.40;;;;;;5997762;23;20141;-83
2022/10/18 03:12:35;;;;;;;1.83;1.60;;;18.70;60.30;;;;;;6033582;23;20161;-83
2022/10/18 03:15:05;;;;;;;2.40;1.75;;;18.70;61.20;;;;;;6033513;23;20221;-82
2022/10/18 03:17:42;;;;;;;1.52;1.42;;;18.70;60.40;;;;;;6034695;23;20268;-83
2022/10/18 03:20:13;;;;;;;1.60;1.50;;;18.80;60.40;;;;;;6066755;23;20276;-84
2022/10/18 03:23:06;;;;;;;1.95;1.42;;;18.80;61.30;;;;;;6094528;23;20662;-83
2022/10/18 03:25:38;;;;;;;1.50;1.40;;;18.80;60.30;;;;;;6174757;23;20151;-84
2022/10/18 03:28:11;;;;;;;1.90;1.52;;;18.70;60.30;;;;;;6174590;23;20157;-84
2022/10/18 03:31:01;;;;;;;1.80;1.70;;;18.70;60.30;;;;;;6144459;23;20213;-83
2022/10/18 03:33:36;;;;;;;1.70;1.60;;;18.70;60.30;;;;;;6114724;23;20164;-83
2022/10/18 03:36:16;;;;;;;1.60;1.50;;;18.70;60.30;;;;;;6042919;23;20207;-83
2022/10/18 03:38:48;;;;;;;1.70;1.60;;;18.70;60.50;;;;;;6044816;23;20176;-83
2022/10/18 03:41:24;;;;;;;1.98;1.70;;;18.70;60.40;;;;;;6091949;23;20180;-83
2022/10/18 03:44:18;;;;;;;1.98;1.67;;;18.70;60.50;;;;;;6068468;23;20188;-83
2022/10/18 03:46:48;;;;;;;1.90;1.65;;;18.70;60.70;;;;;;6067254;23;20153;-83
2022/10/18 03:49:31;;;;;;;1.50;1.40;;;18.70;60.50;;;;;;6042929;23;20153;-83
2022/10/18 03:52:14;;;;;;;1.63;1.30;;;18.70;60.40;;;;;;6022846;23;20152;-83
2022/10/18 03:54:47;;;;;;;2.00;1.60;;;18.70;60.40;;;;;;6052876;23;20245;-83
2022/10/18 03:57:26;;;;;;;2.85;1.63;;;18.70;60.40;;;;;;6095499;23;20262;-83
2022/10/18 03:59:58;;;;;;;1.60;1.50;;;18.70;60.50;;;;;;6076389;23;20141;-84
2022/10/18 04:02:33;;;;;;;1.95;1.48;;;18.70;60.50;;;;;;6068139;23;20187;-83
2022/10/18 04:05:22;;;;;;;1.50;1.40;;;18.70;60.40;;;;;;6113333;23;20210;-83
2022/10/18 04:08:01;;;;;;;1.50;1.40;;;18.70;60.40;;;;;;6133875;23;20503;-84
2022/10/18 04:10:46;;;;;;;1.73;1.40;;;18.70;60.60;;;;;;6107835;23;20173;-83
2022/10/18 04:13:19;;;;;;;1.77;1.50;;;18.70;60.50;;;;;;6130607;23;20150;-83
2022/10/18 04:15:56;;;;;;;1.60;1.50;;;18.80;60.50;;;;;;6105261;23;20150;-83
2022/10/18 04:18:35;;;;;;;1.50;1.40;;;18.70;60.40;;;;;;6097603;23;20151;-84
2022/10/18 04:21:15;;;;;;;1.45;1.30;;;18.70;61.30;;;;;;6085654;23;20188;-83
2022/10/18 04:23:55;;;;;;;1.70;1.60;;;18.70;60.50;;;;;;6000613;24;20205;-83
2022/10/18 04:26:31;;;;;;;2.65;1.58;;;18.80;60.70;;;;;;5989690;23;20157;-85
2022/10/18 04:29:16;;;;;;;1.48;1.38;;;18.70;60.70;;;;;;6011646;23;20561;-84
2022/10/18 04:31:48;;;;;;;1.52;1.42;;;18.70;60.80;;;;;;6013616;23;20240;-83
2022/10/18 04:34:27;;;;;;;1.70;1.48;;;18.70;60.80;;;;;;6034999;23;20172;-83
2022/10/18 04:37:13;;;;;;;1.60;1.48;;;18.70;60.70;;;;;;5989209;23;20225;-83
2022/10/18 04:39:50;;;;;;;1.83;1.60;;;18.70;60.60;;;;;;6059486;23;20158;-83
2022/10/18 04:42:20;;;;;;;1.98;1.65;;;18.70;60.80;;;;;;6035162;23;20174;-83
2022/10/18 04:45:06;;;;;;;1.90;1.60;;;18.70;60.70;;;;;;6058597;23;20218;-84
2022/10/18 04:47:55;;;;;;;2.03;1.33;;;18.70;60.70;;;;;;6059311;23;20198;-83
2022/10/18 04:50:43;;;;;;;2.28;1.63;;;18.70;60.60;;;;;;6033678;23;20150;-83
2022/10/18 04:53:17;;;;;;;1.38;1.27;;;18.70;60.20;;;;;;6059363;23;20161;-83
2022/10/18 04:56:04;;;;;;;1.60;1.38;;;18.70;60.30;;;;;;6011210;23;20154;-83
2022/10/18 04:59:02;;;;;;;1.48;1.30;;;18.70;60.40;;;;;;5996980;23;20163;-83
2022/10/18 05:01:40;;;;;;;1.45;1.35;;;18.70;60.20;;;;;;5984185;23;20198;-83
2022/10/18 05:04:26;;;;;;;1.25;1.15;;;18.70;60.40;;;;;;5983301;23;20161;-83
2022/10/18 05:07:09;;;;;;;1.83;1.55;;;18.70;60.10;;;;;;5983978;23;20150;-83
2022/10/18 05:09:53;;;;;;;1.33;1.23;;;18.60;60.70;;;;;;5973380;24;20156;-83
2022/10/18 05:12:34;;;;;;;1.45;1.20;;;18.70;60.10;;;;;;5951822;24;20156;-83
2022/10/18 05:15:27;;;;;;;1.20;1.10;;;18.70;59.70;;;;;;6002908;24;20244;-83
2022/10/18 05:17:55;;;;;;;1.30;1.02;;;18.70;59.50;;;;;;6002160;24;20139;-83
2022/10/18 05:20:32;;;;;;;1.00;1.00;;;18.80;59.40;;;;;;5980574;24;20170;-83
2022/10/18 05:23:04;;;;;;;1.10;0.98;;;18.70;59.30;;;;;;5978952;24;20209;-83
2022/10/18 05:26:02;;;;;;;1.05;0.90;;;18.80;59.20;;;;;;6003140;24;20192;-82
2022/10/18 05:28:54;;;;;;;0.80;0.80;;;18.80;59.10;;;;;;6005694;23;20155;-83
2022/10/18 05:31:32;;;;;;;1.48;1.10;;;18.80;59.10;;;;;;5992826;23;20153;-82
2022/10/18 05:34:05;;;;;;;1.20;0.90;;;18.70;59.20;;;;;;6013172;23;20154;-83
2022/10/18 05:36:43;;;;;;;1.15;1.05;;;18.80;59.70;;;;;;5986472;23;20165;-82
2022/10/18 05:39:18;;;;;;;1.50;0.90;;;18.90;59.00;;;;;;6032656;23;20154;-83
2022/10/18 05:41:56;;;;;;;1.15;1.00;;;18.80;58.80;;;;;;6087965;23;20184;-83
2022/10/18 05:44:39;;;;;;;1.15;1.02;;;18.80;58.90;;;;;;6031697;23;20674;-81
2022/10/18 05:47:07;;;;;;;0.75;0.75;;;18.80;58.70;;;;;;5997671;23;20160;-83
2022/10/18 05:49:49;;;;;;;0.80;0.77;;;18.90;58.70;;;;;;6008268;23;20219;-81
2022/10/18 05:52:21;;;;;;;1.15;1.05;;;18.80;58.70;;;;;;6006034;23;20155;-82
2022/10/18 05:54:52;;;;;;;0.80;0.80;;;18.80;58.70;;;;;;5948988;24;20166;-82
2022/10/18 05:58:09;;;;;;;0.88;0.88;;;18.80;58.50;;;;;;5972655;24;20164;-82
2022/10/18 06:00:39;;;;;;;0.73;0.73;;;18.90;58.50;;;;;;6014099;23;20156;-83
2022/10/18 06:03:29;;;;;;;1.00;0.90;;;18.90;58.50;;;;;;6003508;24;20198;-82
2022/10/18 06:06:09;;;;;;;1.05;0.95;;;18.90;58.50;;;;;;6027721;23;20156;-83
2022/10/18 06:08:53;;;;;;;1.10;0.85;;;18.90;58.60;;;;;;6028212;23;20177;-82
2022/10/18 06:11:39;;;;;;;0.98;0.77;;;18.90;58.50;;;;;;6055247;23;20158;-84
2022/10/18 06:14:15;;;;;;;0.73;0.73;;;18.80;58.30;;;;;;6054185;23;20147;-83
2022/10/18 06:16:55;;;;;;;1.02;0.80;;;18.90;58.20;;;;;;6027415;23;20186;-83
2022/10/18 06:20:07;;;;;;;1.10;1.00;;;18.90;58.20;;;;;;5982919;23;20219;-83
2022/10/18 06:22:43;;;;;;;0.80;0.80;;;18.90;58.20;;;;;;6003996;23;20225;-84
2022/10/18 06:25:18;;;;;;;1.30;0.90;;;19.00;58.20;;;;;;6054537;23;20155;-83
2022/10/18 06:27:49;;;;;;;1.45;0.90;;;18.90;58.20;;;;;;5941174;23;20231;-83
2022/10/18 06:30:18;;;;;;;1.00;1.00;;;18.90;58.00;;;;;;6010806;23;20154;-84
2022/10/18 06:32:45;;;;;;;1.00;0.90;;;18.90;58.00;;;;;;6037905;23;20162;-82
2022/10/18 06:35:16;;;;;;;1.13;0.90;;;19.00;58.10;;;;;;6015032;23;20157;-82
2022/10/18 06:37:48;;;;;;;1.33;1.17;;;19.00;58.00;;;;;;5987896;23;20661;-83
2022/10/18 06:40:17;;;;;;;3.53;0.80;;;18.90;58.00;;;;;;5980029;24;20183;-82
2022/10/18 06:42:48;;;;;;;0.80;0.80;;;19.00;58.10;;;;;;5984638;23;20186;-82
2022/10/18 06:45:17;;;;;;;0.70;0.70;;;18.90;58.00;;;;;;5954537;24;20156;-82
2022/10/18 06:48:04;;;;;;;1.00;0.90;;;19.00;57.90;;;;;;5920714;24;20157;-82
2022/10/18 06:50:31;;;;;;;0.75;0.70;;;19.00;58.00;;;;;;5895575;24;20240;-82
2022/10/18 06:53:04;;;;;;;0.90;0.90;;;19.00;57.90;;;;;;5918255;24;20161;-83
2022/10/18 06:55:37;;;;;;;1.08;0.98;;;19.00;57.80;;;;;;5954371;24;20156;-84
2022/10/18 06:58:10;;;;;;;0.63;0.60;;;19.00;57.80;;;;;;5954604;24;20159;-83
2022/10/18 07:00:45;;;;;;;1.05;0.80;;;19.00;57.80;;;;;;5975989;24;20170;-84
2022/10/18 07:03:20;;;;;;;0.70;0.70;;;19.00;57.80;;;;;;5920096;24;20188;-83
2022/10/18 07:05:52;;;;;;;1.23;0.80;;;19.00;57.80;;;;;;5873262;24;20161;-83
2022/10/18 07:08:31;;;;;;;1.58;0.98;;;19.00;57.90;;;;;;5893489;24;20160;-82
2022/10/18 07:11:04;;;;;;;1.50;0.68;;;19.00;57.80;;;;;;5891409;24;20263;-82
2022/10/18 07:13:33;;;;;;;0.73;0.73;;;18.90;57.60;;;;;;5915097;24;20540;-83
2022/10/18 07:16:13;;;;;;;0.80;0.80;;;19.00;57.80;;;;;;5938058;24;20661;-82
2022/10/18 07:18:45;;;;;;;0.80;0.80;;;19.00;57.70;;;;;;5903101;24;20168;-83
2022/10/18 07:21:16;;;;;;;1.48;0.93;;;18.90;57.60;;;;;;5937412;24;20165;-82
2022/10/18 07:23:45;;;;;;;1.48;0.70;;;19.00;57.60;;;;;;6025968;23;20245;-82
2022/10/18 07:26:14;;;;;;;2.10;0.80;;;19.00;57.60;;;;;;6081349;23;20153;-82
2022/10/18 07:28:52;;;;;;;1.90;0.85;;;19.00;57.60;;;;;;6106100;23;20152;-82
2022/10/18 07:31:22;;;;;;;1.85;0.90;;;19.10;57.60;;;;;;6092689;23;20148;-82
2022/10/18 07:33:52;;;;;;;1.05;0.80;;;19.00;57.70;;;;;;6091723;23;20151;-82
2022/10/18 07:36:19;;;;;;;1.45;0.70;;;19.00;57.50;;;;;;6152451;23;20150;-82
2022/10/18 07:38:46;;;;;;;1.67;0.85;;;19.00;57.50;;;;;;6176549;23;20177;-82
2022/10/18 07:41:18;;;;;;;0.60;0.52;;;19.00;57.50;;;;;;6176005;23;20218;-83
2022/10/18 07:43:47;;;;;;;1.88;0.90;;;19.00;57.50;;;;;;6103321;23;20209;-83
2022/10/18 07:46:18;;;;;;;2.85;1.10;;;19.00;57.60;;;;;;6119350;23;20156;-83
2022/10/18 07:48:46;;;;;;;2.13;0.75;;;19.00;57.50;;;;;;6061249;23;20165;-82
2022/10/18 07:51:20;;;;;;;1.10;0.60;;;19.00;57.60;;;;;;6034631;23;20184;-82
2022/10/18 07:53:47;;;;;;;4.22;0.73;;;19.00;57.60;;;;;;6029701;23;20156;-82
2022/10/18 07:56:15;;;;;;;0.60;0.60;;;19.00;57.60;;;;;;6005749;23;20153;-82
2022/10/18 07:58:44;;;;;;;1.98;0.65;;;19.00;57.50;;;;;;5982952;23;20309;-83
2022/10/18 08:01:24;;;;;;;0.90;0.90;;;19.00;57.50;;;;;;5997423;24;20179;-84
2022/10/18 08:03:55;;;;;;;1.60;0.60;;;19.10;57.60;;;;;;5994654;24;20162;-86
2022/10/18 08:06:23;;;;;;;0.75;0.75;;;19.10;57.60;;;;;;5996290;24;20155;-86
2022/10/18 08:09:04;;;;;;;1.25;0.70;;;19.10;57.70;;;;;;5973247;24;20159;-85
2022/10/18 08:11:31;;;;;;;1.52;0.90;;;19.10;57.70;;;;;;5929184;24;20198;-84
2022/10/18 08:14:00;;;;;;;0.95;0.70;;;19.10;57.70;;;;;;5997690;23;20158;-85
2022/10/18 08:16:42;;;;;;;1.50;0.70;;;19.10;57.70;;;;;;5946471;24;20252;-85
2022/10/18 08:19:17;;;;;;;0.70;0.70;;;19.10;57.70;;;;;;5949723;24;20156;-84
2022/10/18 08:21:46;;;;;;;2.35;0.85;;;19.10;57.80;;;;;;5970928;24;20195;-85
2022/10/18 08:24:21;;;;;;;0.85;0.70;;;19.10;57.70;;;;;;5953193;24;20144;-85
2022/10/18 08:26:49;;;;;;;0.80;0.70;;;19.20;57.70;;;;;;5928508;24;20159;-84
2022/10/18 08:29:23;;;;;;;1.30;0.80;;;19.10;57.70;;;;;;5900587;24;20170;-84
2022/10/18 08:31:55;;;;;;;0.77;0.77;;;19.20;57.70;;;;;;5913168;24;20230;-84
2022/10/18 08:34:21;;;;;;;0.70;0.70;;;19.20;57.60;;;;;;5973958;24;20155;-85
2022/10/18 08:36:50;;;;;;;0.75;0.70;;;19.10;57.50;;;;;;5977203;24;20185;-84
2022/10/18 08:39:22;;;;;;;2.85;0.60;;;19.10;57.50;;;;;;5979708;24;20155;-85
2022/10/18 08:42:38;;;;;;;0.77;0.70;;;19.10;57.50;;;;;;5979964;24;20247;-85
2022/10/18 08:45:07;;;;;;;1.58;0.70;;;19.10;57.50;;;;;;5979080;24;20153;-85
2022/10/18 08:48:26;;;;;;;0.52;0.52;;;19.10;57.50;;;;;;5935434;24;20144;-84
2022/10/18 08:51:17;;;;;;;0.55;0.55;;;19.10;57.50;;;;;;5975088;24;20246;-85
2022/10/18 08:54:17;;;;;;;0.70;0.70;;;19.10;57.50;;;;;;5943673;24;20168;-85
2022/10/18 08:56:57;;;;;;;0.95;0.85;;;19.10;57.50;;;;;;5894263;24;20198;-85
2022/10/18 08:59:52;;;;;;;1.17;0.50;;;19.10;57.60;;;;;;5830956;24;20150;-85
2022/10/18 09:05:24;;;;;;;0.82;0.60;;;19.20;58.20;;;;;;6225751;23;20193;-85
2022/10/18 09:08:37;;;;;;;0.65;0.63;;;19.20;57.60;;;;;;6190501;23;20226;-84
2022/10/18 09:11:08;;;;;;;0.68;0.60;;;19.20;57.60;;;;;;6198443;23;20157;-85
2022/10/18 09:14:05;;;;;;;0.70;0.52;;;19.20;57.70;;;;;;6136599;23;20161;-85
2022/10/18 09:16:52;;;;;;;0.73;0.70;;;19.20;57.70;;;;;;6096455;23;20137;-84
2022/10/18 09:19:42;;;;;;;1.02;0.60;;;19.20;57.60;;;;;;6187708;23;20173;-84
2022/10/18 09:22:51;;;;;;;1.13;0.70;;;19.20;57.60;;;;;;6236475;23;20170;-85
2022/10/18 09:25:26;;;;;;;2.33;0.80;;;19.20;57.60;;;;;;6170450;23;20210;-83
2022/10/18 09:27:56;;;;;;;1.23;0.75;;;19.20;57.60;;;;;;6172500;23;20135;-85
2022/10/18 09:30:46;;;;;;;0.75;0.70;;;19.20;57.60;;;;;;6148399;23;20602;-84
2022/10/18 09:33:23;;;;;;;0.90;0.70;;;19.30;57.70;;;;;;6148968;23;20139;-85
2022/10/18 09:36:07;;;;;;;0.60;0.60;;;19.20;57.70;;;;;;6170568;23;20187;-85
2022/10/18 09:39:02;;;;;;;0.77;0.60;;;19.20;57.60;;;;;;6127616;23;20226;-84
2022/10/18 09:41:45;;;;;;;0.80;0.60;;;19.20;57.60;;;;;;6097044;23;20151;-85
2022/10/18 09:44:17;;;;;;;0.73;0.70;;;19.20;57.50;;;;;;6167838;23;20143;-85
2022/10/18 09:47:26;;;;;;;0.75;0.75;;;19.20;57.60;;;;;;6147807;23;20610;-84
2022/10/18 09:49:59;;;;;;;1.02;0.68;;;19.20;57.50;;;;;;5996044;23;20223;-81
2022/10/18 09:52:41;;;;;;;0.80;0.80;;;19.30;57.50;;;;;;5940852;24;20160;-84
2022/10/18 09:55:21;;;;;;;1.20;0.80;;;19.30;57.80;;;;;;5942596;24;20205;-83
2022/10/18 09:58:01;;;;;;;0.50;0.50;;;19.20;57.40;;;;;;5895903;24;20156;-82
2022/10/18 10:00:38;;;;;;;0.60;0.60;;;19.20;57.40;;;;;;5942054;24;20156;-83
2022/10/18 10:03:16;;;;;;;1.23;0.60;;;19.20;57.10;;;;;;5941212;24;20187;-83
2022/10/18 10:05:45;;;;;;;0.70;0.70;;;19.30;56.90;;;;;;5961467;24;20661;-85
2022/10/18 10:08:16;;;;;;;0.93;0.60;;;19.30;57.10;;;;;;5937834;24;20690;-84
2022/10/18 10:10:57;;;;;;;1.52;0.70;;;19.20;56.80;;;;;;5881914;24;20642;-84
2022/10/18 10:14:11;;;;;;;0.60;0.60;;;19.30;57.00;;;;;;5862369;24;20161;-84
2022/10/18 10:17:02;;;;;;;0.73;0.70;;;19.20;56.80;;;;;;5883599;24;20203;-83
2022/10/18 10:20:02;;;;;;;0.80;0.70;;;19.20;56.70;;;;;;5884553;24;20158;-84
2022/10/18 10:22:47;;;;;;;0.60;0.60;;;19.20;56.60;;;;;;5992916;23;20190;-85
2022/10/18 10:25:28;;;;;;;0.90;0.60;;;19.20;56.50;;;;;;5952156;24;20168;-82
2022/10/18 10:36:54;;;;;;;1.67;0.60;;;19.30;56.00;;;;;;6231405;23;20209;-86
2022/10/18 10:51:11;;;;;;;1.58;0.70;;;19.30;55.90;;;;;;6235372;23;20208;-82
2022/10/18 10:54:14;;;;;;;2.05;0.65;;;19.30;55.90;;;;;;6136748;23;20209;-83
2022/10/18 10:56:55;;;;;;;0.60;0.60;;;19.30;56.70;;;;;;6015680;23;20154;-84
2022/10/18 11:00:00;;;;;;;0.63;0.63;;;19.30;56.00;;;;;;5965088;23;20285;-82
2022/10/18 11:02:43;;;;;;;0.90;0.80;;;19.30;55.80;;;;;;5929030;23;20190;-84
2022/10/18 11:05:59;;;;;;;;;;;;;;;;;;;;;
2022/10/18 11:08:32;;;;;;;0.80;0.60;;;19.30;55.70;;;;;;5874033;24;20242;-84
2022/10/18 11:11:41;;;;;;;0.63;0.55;;;19.30;55.80;;;;;;5939656;24;20235;-83
2022/10/18 11:14:57;;;;;;;0.60;0.60;;;19.30;55.90;;;;;;5961235;24;20295;-84
2022/10/18 11:17:35;;;;;;;0.68;0.68;;;19.30;55.30;;;;;;5900864;24;20667;-83
2022/10/18 11:20:22;;;;;;;0.60;0.60;;;19.30;55.20;;;;;;5877992;24;20158;-82
2022/10/18 11:23:35;;;;;;;0.70;0.60;;;19.40;55.30;;;;;;5877234;24;20201;-84
2022/10/18 11:26:39;;;;;;;0.73;0.60;;;19.40;55.10;;;;;;5927068;24;20493;-82
2022/10/18 11:29:27;;;;;;;0.60;0.60;;;19.40;55.30;;;;;;5927355;24;20152;-84
2022/10/18 11:32:24;;;;;;;0.82;0.80;;;19.30;55.50;;;;;;5888619;24;20241;-82
2022/10/18 11:49:04;;;;;;;2.67;0.70;;;19.40;55.10;;;;;;5955242;24;20243;-82
2022/10/18 12:02:32;;;;;;;0.50;0.50;;;19.40;55.40;;;;;;6013102;23;20849;-83
2022/10/18 12:05:02;;;;;;;1.05;0.77;;;19.40;55.10;;;;;;6012391;23;20261;-83
2022/10/18 12:08:09;;;;;;;0.95;0.60;;;19.40;55.00;;;;;;6022511;23;20185;-83
2022/10/18 12:17:23;;;;;;;0.80;0.80;;;19.50;55.00;;;;;;6049676;23;20166;-84
2022/10/18 12:19:50;;;;;;;3.15;0.68;;;19.40;55.00;;;;;;6128918;23;20155;-85
2022/10/18 12:22:35;;;;;;;0.70;0.70;;;19.50;55.10;;;;;;6085289;23;20199;-85
2022/10/18 12:25:12;;;;;;;0.60;0.60;;;19.50;55.00;;;;;;6065556;23;20214;-85
2022/10/18 12:27:40;;;;;;;0.82;0.73;;;19.50;55.00;;;;;;6042355;23;20282;-84
2022/10/18 12:30:27;;;;;;;0.73;0.70;;;19.50;54.80;;;;;;6086016;23;20632;-86
2022/10/18 12:33:03;;;;;;;0.60;0.60;;;19.50;55.00;;;;;;6016813;23;20242;-86
2022/10/18 12:35:41;;;;;;;0.70;0.70;;;19.50;54.90;;;;;;6106232;23;20622;-86
2022/10/18 12:38:31;;;;;;;0.60;0.60;;;19.50;54.90;;;;;;6124739;23;20231;-84
2022/10/18 12:41:05;;;;;;;0.60;0.60;;;19.50;54.80;;;;;;6149419;23;20471;-86
2022/10/18 12:43:35;;;;;;;0.70;0.65;;;19.50;54.80;;;;;;6095819;23;20190;-85
2022/10/18 12:46:18;;;;;;;0.93;0.80;;;19.50;54.80;;;;;;6149150;23;20139;-85
2022/10/18 12:49:08;;;;;;;0.60;0.60;;;19.50;54.80;;;;;;6141400;23;20159;-87
2022/10/18 12:51:53;;;;;;;1.30;0.70;;;19.60;54.80;;;;;;6131004;23;20164;-86
2022/10/18 12:54:29;;;;;;;1.02;0.80;;;19.60;54.80;;;;;;6203854;23;20145;-86
2022/10/18 12:57:04;;;;;;;0.60;0.60;;;19.60;54.70;;;;;;6203223;23;20142;-85
2022/10/18 12:59:52;;;;;;;0.70;0.70;;;19.60;54.50;;;;;;6154593;23;20160;-86
2022/10/18 13:02:21;;;;;;;0.50;0.50;;;19.60;54.50;;;;;;6201448;23;20190;-84
2022/10/18 13:04:47;;;;;;;0.77;0.70;;;19.60;54.50;;;;;;6198925;23;20597;-85
2022/10/18 13:07:32;;;;;;;0.70;0.70;;;19.60;54.60;;;;;;6197071;23;20142;-85
2022/10/18 13:10:32;;;;;;;0.70;0.60;;;19.60;54.50;;;;;;6195130;23;20142;-85
2022/10/18 13:13:17;;;;;;;0.90;0.90;;;19.60;54.50;;;;;;6219041;23;20200;-84
2022/10/18 13:15:46;;;;;;;0.70;0.70;;;19.50;54.80;;;;;;6171517;23;20154;-85
2022/10/18 13:18:25;;;;;;;0.70;0.70;;;19.50;54.90;;;;;;6195173;23;20139;-85
2022/10/18 13:21:09;;;;;;;0.70;0.70;;;19.40;54.80;;;;;;6171676;23;20152;-84
2022/10/18 13:24:11;;;;;;;0.70;0.65;;;19.40;54.80;;;;;;6169304;23;20181;-85
2022/10/18 13:26:50;;;;;;;0.60;0.60;;;19.40;54.80;;;;;;6204036;23;20138;-85
2022/10/18 13:30:41;;;;;;;0.80;0.80;;;19.50;54.70;;;;;;6171223;23;20208;-85
2022/10/18 13:33:14;;;;;;;0.70;0.70;;;19.50;54.70;;;;;;6217224;23;20158;-85
2022/10/18 13:35:50;;;;;;;0.60;0.60;;;19.50;54.50;;;;;;6167613;23;20147;-84
2022/10/18 13:38:36;;;;;;;0.60;0.60;;;19.50;54.60;;;;;;6117974;23;20159;-84
2022/10/18 13:41:07;;;;;;;1.58;0.70;;;19.60;54.60;;;;;;6138351;23;20171;-85
2022/10/18 13:43:52;;;;;;;0.43;0.43;;;19.50;54.60;;;;;;6116269;23;20286;-84
2022/10/18 13:46:25;;;;;;;0.77;0.77;;;19.50;54.50;;;;;;6166922;23;20144;-84
2022/10/18 13:49:16;;;;;;;1.42;0.60;;;19.50;54.70;;;;;;6117704;23;20530;-85
2022/10/18 13:52:01;;;;;;;0.80;0.80;;;19.50;54.80;;;;;;6146703;23;20258;-84
2022/10/18 13:55:02;;;;;;;0.93;0.65;;;19.40;54.70;;;;;;6075071;23;20158;-84
2022/10/18 13:58:00;;;;;;;0.63;0.57;;;19.40;54.70;;;;;;6101044;23;20272;-84
2022/10/18 14:00:51;;;;;;;0.80;0.80;;;19.40;54.70;;;;;;6140955;23;20160;-85
2022/10/18 14:03:53;;;;;;;0.95;0.80;;;19.50;54.60;;;;;;6073825;23;20197;-85
2022/10/18 14:06:37;;;;;;;0.80;0.80;;;19.50;54.60;;;;;;6143371;23;20155;-84
2022/10/18 14:09:24;;;;;;;1.98;0.80;;;19.50;54.70;;;;;;6123607;23;20151;-84
2022/10/18 14:11:55;;;;;;;0.70;0.70;;;19.50;54.70;;;;;;6098286;23;20182;-84
2022/10/18 14:14:43;;;;;;;0.60;0.60;;;19.40;54.80;;;;;;6096099;23;20518;-85
2022/10/18 14:17:38;;;;;;;1.25;0.75;;;19.50;54.60;;;;;;6142612;23;20719;-84
2022/10/18 14:20:29;;;;;;;0.73;0.73;;;19.40;54.90;;;;;;6141471;23;20156;-84
2022/10/18 14:23:32;;;;;;;2.00;0.77;;;19.50;54.90;;;;;;6074093;23;20183;-84
2022/10/18 14:26:39;;;;;;;;;;;;;;;;;;;;;
2022/10/18 14:29:30;;;;;;;1.75;0.70;;;19.50;55.20;;;;;;6012193;23;20207;-83
2022/10/18 14:32:01;;;;;;;0.60;0.60;;;19.50;54.90;;;;;;6011420;23;20159;-84
2022/10/18 14:34:53;;;;;;;2.65;0.85;;;19.50;54.90;;;;;;6010546;23;20593;-84
2022/10/18 15:07:50;;;;;;;1.55;0.90;;;19.40;55.10;;;;;;6200020;23;20245;-84
2022/10/18 15:10:40;;;;;;;2.00;1.00;;;19.40;55.10;;;;;;6192753;23;20157;-83
2022/10/18 15:13:13;;;;;;;1.15;0.70;;;19.40;55.10;;;;;;6153580;23;20153;-84
2022/10/18 15:15:57;;;;;;;1.80;0.60;;;19.40;55.00;;;;;;6217855;23;20145;-84
2022/10/18 15:18:29;;;;;;;0.75;0.65;;;19.40;55.00;;;;;;6217352;23;20133;-83
2022/10/18 15:21:25;;;;;;;2.78;0.90;;;19.50;55.30;;;;;;6215784;23;20161;-83
2022/10/18 15:24:25;;;;;;;2.50;1.02;;;19.50;55.30;;;;;;6245083;22;20149;-83
2022/10/18 15:27:00;;;;;;;1.50;0.85;;;19.50;55.10;;;;;;6218662;23;20137;-83
2022/10/18 15:29:31;;;;;;;1.98;0.85;;;19.50;55.20;;;;;;6190531;23;20224;-85